Airfield :







YOU CAN JOIN US ON...

 
LOGIN :

Register | Disclaimer

   EN    FR    IT 

 









Legend :    VFR   Marginal VFR   IFR   Intensive IFR   Very Intensive IFR
Visi :
Ceiling :
>= 8 km
>= 3000ft
5 to 8 km
1000 to 3000 ft
1500m to 5 km
500 to 1000 ft
800 to 1500m
200 to 500 ft
< 800m
< 200 ft
Symbols :   Thunderstorms  Fog  Heavy snow  Heavy precipitations  Wind > 20 kt







- Airport Elevation : 49 ft


KOWD - Norwood Memorial

CURRENT METAR :
  • 181853Z 04007KT 10SM OVC020 22/15 A2998 RMK AO2 SLP152 T02170150

EXPIRED METARs :
  • 181753Z 05008KT 10SM OVC021 22/15 A2999 RMK AO2 SLP154 60001 T02220150 10228 20200 58001
  • 181653Z 06010G15KT 10SM OVC021 22/15 A3000 RMK AO2 SLP157 T02170150

TAF N/A
KZBW FIR / North America



MET'MAP, your aeronautical weather chart ! - Copyright ORBIFLY December 2007 - Disclaimer

ORBIFLY MET'MAP TEAM :

Programming & Development : Alexandra Zaïnal
Concept & Development : Baudouin d'Aumeries
Co-Development & Prog : Marc-Olivier Méhu
Technical & hardware support : Manuel Goepfert

Contact : metmap@orbifly.com




SOURCES & CREDITS :

   NOAA